Details for United Airlines at PGUM




Go Back


Latest METAR
Local Time

PGUM 221754Z 08005KT 10SM CLR 28/27 A2985 RMK AO2 SLP101 T02780267 10283 20272 56008 $

23/05/2018, 03:57:23

Description
Results
United Airlines Logo
Number of Pilots based at PGUM
0 Pilots Based here
Number of United Airlines Flights Departed from PGUM
0 Flights Departed
Number of United Airlines Flights Arrived at PGUM
0 Flights Arrived
Number of United Airlines Schedules Departing from PGUM
22 Schedules
Number of United Airlines Schedules Arriving at PGUM
21 Schedules
Number of United Airlines Schedules Departing from PGUM availible today
12 Schedules Today
Number of United Airlines Schedules Arriving at PGUM availible today
13 Schedules Today
Average Landing Rate at PGUM
-38 fpm
United Airlines Average Landing Rate at PGUM
0 fpm
Total Fuel Purchased at PGUM by United Airlines
0.00 kgs / 0.00 lbs

Pilots Based at PGUM


Pilot ID
Pilot Name
Pilot Rank
No. of Flights
No. of Flying Hours
There are no pilots assigned to this hub!   Will you be the first?
Content